Time;durP1;ratioP1;P1;durP2;ratioP2;P2;SDS_P1;SDS_P2;PMS_P1;PMS_P2;Temp;Humidity;BMP_temperature;BMP_pressure;BME280_temperature;BME280_humidity;BME280_pressure;Samples;Min_cycle;Max_cycle;Signal;HPM_P1;HPM_P2
2023/12/28 00:01:01;;;;;;;7.80;2.70;;;11.20;99.90;;;;;;4214862;28;20433;-72
2023/12/28 00:03:04;;;;;;;10.73;2.78;;;11.10;99.90;;;;;;4214636;28;20048;-72
2023/12/28 00:05:06;;;;;;;6.78;3.30;;;11.10;99.90;;;;;;4249935;27;20039;-72
2023/12/28 00:07:09;;;;;;;5.63;2.88;;;11.10;99.90;;;;;;4250597;27;20047;-73
2023/12/28 00:09:12;;;;;;;8.63;2.88;;;11.10;99.90;;;;;;4249878;27;20376;-72
2023/12/28 00:11:14;;;;;;;8.68;2.67;;;11.10;99.90;;;;;;4249963;27;20047;-72
2023/12/28 00:13:16;;;;;;;8.95;3.17;;;11.10;99.90;;;;;;4249751;27;20523;-72
2023/12/28 00:15:18;;;;;;;5.90;2.80;;;11.10;99.90;;;;;;4242469;27;20039;-72
2023/12/28 00:17:20;;;;;;;6.32;2.63;;;11.20;99.90;;;;;;4249446;27;20047;-73
2023/12/28 00:19:22;;;;;;;9.65;3.08;;;11.20;99.90;;;;;;4249981;27;20054;-72
2023/12/28 00:21:26;;;;;;;6.88;2.78;;;11.10;99.90;;;;;;4250072;27;20043;-72
2023/12/28 00:23:29;;;;;;;6.70;2.88;;;11.10;99.90;;;;;;4249305;27;20047;-73
2023/12/28 00:25:31;;;;;;;10.38;3.10;;;11.10;99.90;;;;;;4249637;27;20075;-73
2023/12/28 00:27:35;;;;;;;6.65;2.78;;;11.20;99.90;;;;;;4249754;27;20063;-72
2023/12/28 00:29:38;;;;;;;8.20;3.00;;;11.10;99.90;;;;;;4249266;27;20039;-73
2023/12/28 00:31:40;;;;;;;8.20;2.95;;;11.10;99.90;;;;;;4248030;27;20051;-72
2023/12/28 00:33:42;;;;;;;9.35;3.35;;;11.20;99.90;;;;;;4249168;27;20082;-73
2023/12/28 00:35:45;;;;;;;9.07;2.92;;;11.10;99.90;;;;;;4249480;27;20039;-72
2023/12/28 00:37:47;;;;;;;6.63;2.78;;;11.10;99.90;;;;;;4261125;27;20062;-72
2023/12/28 00:39:51;;;;;;;6.03;2.45;;;11.10;99.90;;;;;;4266580;27;20126;-73
2023/12/28 00:41:53;;;;;;;7.15;3.13;;;11.10;99.90;;;;;;4266705;27;20517;-72
2023/12/28 00:43:55;;;;;;;4.93;2.45;;;11.10;99.90;;;;;;4259397;27;20039;-72
2023/12/28 00:45:57;;;;;;;7.15;2.63;;;11.20;99.90;;;;;;4249614;27;20053;-71
2023/12/28 00:47:59;;;;;;;9.52;2.65;;;11.10;99.90;;;;;;4237289;27;20096;-72
2023/12/28 00:50:02;;;;;;;8.32;3.08;;;11.20;99.90;;;;;;4235381;28;20067;-71
2023/12/28 00:52:05;;;;;;;8.55;3.10;;;11.20;99.90;;;;;;4235234;28;20066;-72
2023/12/28 00:54:07;;;;;;;9.10;3.03;;;11.20;99.90;;;;;;4242632;27;20051;-72
2023/12/28 00:56:11;;;;;;;7.72;2.92;;;11.10;99.90;;;;;;4249745;27;20200;-72
2023/12/28 00:58:13;;;;;;;8.02;2.75;;;11.20;99.90;;;;;;4249861;27;20477;-72
2023/12/28 01:00:15;;;;;;;6.05;2.67;;;11.20;99.90;;;;;;4248675;27;20132;-72
2023/12/28 01:02:17;;;;;;;10.35;3.15;;;11.20;99.90;;;;;;4248450;27;20501;-73
2023/12/28 01:04:22;;;;;;;8.70;3.28;;;11.20;99.90;;;;;;4247631;27;20374;-73
2023/12/28 01:06:28;;;;;;;;;;;11.20;99.90;;;;;;4249384;27;20481;-72
2023/12/28 01:08:30;;;;;;;8.50;2.70;;;11.20;99.90;;;;;;4249133;27;20010;-72
2023/12/28 01:10:42;;;;;;;8.13;3.13;;;11.10;99.90;;;;;;4249769;27;20562;-72
2023/12/28 01:12:45;;;;;;;8.73;2.97;;;11.20;99.90;;;;;;4249277;27;20049;-72
2023/12/28 01:14:47;;;;;;;6.47;3.05;;;11.20;99.90;;;;;;4249169;27;20051;-73
2023/12/28 01:16:50;;;;;;;7.45;2.63;;;11.10;99.90;;;;;;4251081;27;20043;-72
2023/12/28 01:18:52;;;;;;;10.30;2.60;;;11.20;99.90;;;;;;4253401;27;20047;-72
2023/12/28 01:20:54;;;;;;;8.30;2.65;;;11.20;99.90;;;;;;4248782;27;20088;-72
2023/12/28 01:22:56;;;;;;;10.45;3.28;;;11.20;99.90;;;;;;4232953;28;20047;-71
2023/12/28 01:24:58;;;;;;;10.63;3.17;;;11.20;99.90;;;;;;4247745;27;20081;-70
2023/12/28 01:27:00;;;;;;;6.78;2.70;;;11.20;99.90;;;;;;4249274;27;20051;-71
2023/12/28 01:29:04;;;;;;;6.35;2.80;;;11.10;99.90;;;;;;4249530;27;20039;-73
2023/12/28 01:31:06;;;;;;;11.13;3.13;;;11.20;99.90;;;;;;4249442;27;20063;-71
2023/12/28 01:33:08;;;;;;;9.73;3.10;;;11.10;99.90;;;;;;4230857;28;20567;-72
2023/12/28 01:35:10;;;;;;;8.13;3.03;;;11.20;99.90;;;;;;4248848;27;20055;-72
2023/12/28 01:37:12;;;;;;;7.88;3.25;;;11.10;99.90;;;;;;4248697;27;20088;-72
2023/12/28 01:39:15;;;;;;;12.05;3.30;;;11.10;99.90;;;;;;4242491;27;20054;-72
2023/12/28 01:41:17;;;;;;;9.93;2.85;;;11.10;99.90;;;;;;4237784;27;20043;-71
2023/12/28 01:43:19;;;;;;;9.32;3.38;;;11.10;99.90;;;;;;4249023;27;20045;-72
2023/12/28 01:45:23;;;;;;;6.53;2.78;;;11.10;99.90;;;;;;4248836;27;20079;-72
2023/12/28 01:47:26;;;;;;;7.57;2.85;;;11.10;99.90;;;;;;4248387;27;20050;-73
2023/12/28 01:49:28;;;;;;;8.65;3.15;;;11.00;99.90;;;;;;4248404;27;20049;-72
2023/12/28 01:51:31;;;;;;;10.70;2.92;;;11.10;99.90;;;;;;4247919;27;20039;-73
2023/12/28 01:53:33;;;;;;;10.55;3.03;;;11.10;99.90;;;;;;4248152;27;20039;-71
2023/12/28 01:55:35;;;;;;;9.50;3.33;;;11.10;99.90;;;;;;4241309;27;20052;-71
2023/12/28 01:57:38;;;;;;;10.35;2.97;;;11.00;99.90;;;;;;4231295;28;20389;-73
2023/12/28 01:59:41;;;;;;;7.88;3.35;;;11.10;99.90;;;;;;4238422;27;20043;-71
2023/12/28 02:01:45;;;;;;;9.43;3.63;;;11.10;99.90;;;;;;4249190;27;20054;-73
2023/12/28 02:03:47;;;;;;;11.50;3.43;;;11.00;99.90;;;;;;4249476;27;20043;-73
2023/12/28 02:05:49;;;;;;;9.05;2.90;;;11.00;99.90;;;;;;4248552;27;20527;-73
2023/12/28 02:07:51;;;;;;;13.38;3.22;;;11.00;99.90;;;;;;4251695;27;20047;-73
2023/12/28 02:09:53;;;;;;;12.50;3.25;;;11.00;99.90;;;;;;4251369;27;20126;-72
2023/12/28 02:11:55;;;;;;;8.68;3.28;;;11.00;99.90;;;;;;4248805;27;20114;-72
2023/12/28 02:13:58;;;;;;;8.50;3.25;;;11.00;99.90;;;;;;4234937;28;20406;-73
2023/12/28 02:16:06;;;;;;;7.90;2.75;;;11.00;99.90;;;;;;4250142;27;20047;-72
2023/12/28 02:18:12;;;;;;;11.75;3.35;;;11.00;99.90;;;;;;4234228;28;20044;-71
2023/12/28 02:20:16;;;;;;;9.38;2.95;;;11.00;99.90;;;;;;4252188;27;20054;-72
2023/12/28 02:22:18;;;;;;;8.93;2.45;;;11.00;99.90;;;;;;4251995;27;20096;-72
2023/12/28 02:24:20;;;;;;;10.18;3.28;;;10.90;99.90;;;;;;4248679;27;20085;-72
2023/12/28 02:26:24;;;;;;;9.27;3.30;;;11.00;99.90;;;;;;4251827;27;20078;-72
2023/12/28 02:28:26;;;;;;;6.93;3.05;;;10.90;99.90;;;;;;4244767;27;20489;-72
2023/12/28 02:30:29;;;;;;;10.27;2.80;;;11.00;99.90;;;;;;4246300;27;20063;-72
2023/12/28 02:32:43;;;;;;;8.35;3.17;;;11.00;99.90;;;;;;4250720;28;20047;-72
2023/12/28 02:34:52;;;;;;;12.02;2.85;;;11.00;99.90;;;;;;4249972;28;20039;-72
2023/12/28 02:36:56;;;;;;;8.85;2.97;;;10.90;99.90;;;;;;4231425;28;20086;-72
2023/12/28 02:38:59;;;;;;;8.18;2.88;;;11.00;99.90;;;;;;4249452;28;20039;-72
2023/12/28 02:41:03;;;;;;;8.32;2.97;;;10.90;99.90;;;;;;4249595;28;20486;-72
2023/12/28 02:43:08;;;;;;;7.68;2.97;;;10.90;99.90;;;;;;4249749;28;20129;-72
2023/12/28 02:45:11;;;;;;;10.52;3.25;;;11.00;99.90;;;;;;4235953;28;20083;-73
2023/12/28 02:47:13;;;;;;;11.30;3.05;;;11.00;99.90;;;;;;4255859;28;20115;-73
2023/12/28 02:49:16;;;;;;;11.60;3.58;;;10.90;99.90;;;;;;4255285;28;20043;-73
2023/12/28 02:51:18;;;;;;;10.13;3.28;;;10.90;99.90;;;;;;4254128;28;20043;-72
2023/12/28 02:53:20;;;;;;;9.50;3.22;;;11.00;99.90;;;;;;4252253;28;20048;-72
2023/12/28 02:55:23;;;;;;;9.82;3.28;;;11.00;99.90;;;;;;4249779;28;20080;-72
2023/12/28 02:57:25;;;;;;;11.45;3.00;;;10.90;99.90;;;;;;4249237;28;20047;-72
2023/12/28 02:59:29;;;;;;;8.85;2.63;;;10.90;99.90;;;;;;4249638;28;20065;-72
2023/12/28 03:01:31;;;;;;;14.40;3.15;;;10.90;99.90;;;;;;4237771;28;20062;-71
2023/12/28 03:03:33;;;;;;;13.70;3.67;;;10.90;99.90;;;;;;4233209;28;20054;-71
2023/12/28 03:05:35;;;;;;;9.95;3.10;;;11.00;99.90;;;;;;4246581;28;20039;-74
2023/12/28 03:07:38;;;;;;;9.95;2.72;;;10.90;99.90;;;;;;4253665;28;20044;-71
2023/12/28 03:09:40;;;;;;;7.40;3.13;;;11.00;99.90;;;;;;4252716;28;20043;-71
2023/12/28 03:11:42;;;;;;;11.70;3.28;;;11.00;99.90;;;;;;4250132;28;20040;-72
2023/12/28 03:13:45;;;;;;;9.95;3.10;;;10.90;99.90;;;;;;4250057;28;20447;-72
2023/12/28 03:15:48;;;;;;;7.45;2.65;;;10.90;99.90;;;;;;4248503;28;20057;-72
2023/12/28 03:17:50;;;;;;;12.10;3.03;;;11.00;99.90;;;;;;4239229;28;20379;-72
2023/12/28 03:19:53;;;;;;;11.43;3.03;;;10.90;99.90;;;;;;4231338;28;20399;-72
2023/12/28 03:21:55;;;;;;;10.88;3.00;;;10.90;99.90;;;;;;4231172;28;20043;-72
2023/12/28 03:23:57;;;;;;;10.70;3.15;;;10.90;99.90;;;;;;4232226;28;20048;-72
2023/12/28 03:26:00;;;;;;;12.13;3.08;;;10.90;99.90;;;;;;4245232;28;20074;-72
2023/12/28 03:28:03;;;;;;;13.50;3.38;;;10.90;99.90;;;;;;4248884;28;20044;-72
2023/12/28 03:30:07;;;;;;;13.00;3.40;;;11.00;99.90;;;;;;4248301;28;20047;-73
2023/12/28 03:32:11;;;;;;;7.18;2.65;;;11.00;99.90;;;;;;4248776;28;20051;-72
2023/12/28 03:34:13;;;;;;;12.82;2.97;;;10.90;99.90;;;;;;4234846;28;20051;-73
2023/12/28 03:36:19;;;;;;;9.63;2.90;;;11.00;99.90;;;;;;4248168;28;20385;-72
2023/12/28 03:38:21;;;;;;;9.07;2.78;;;10.90;99.90;;;;;;4265306;27;20059;-72
2023/12/28 03:40:23;;;;;;;12.55;3.30;;;10.90;99.90;;;;;;4269244;27;20140;-71
2023/12/28 03:42:25;;;;;;;8.90;2.80;;;10.90;99.90;;;;;;4269638;27;20045;-72
2023/12/28 03:44:28;;;;;;;15.88;3.25;;;10.90;99.90;;;;;;4268091;27;20067;-72
2023/12/28 03:46:30;;;;;;;7.35;2.80;;;10.90;99.90;;;;;;4234833;28;20130;-72
2023/12/28 03:48:35;;;;;;;10.18;2.65;;;10.90;99.90;;;;;;4234768;28;20044;-72
2023/12/28 03:50:38;;;;;;;13.38;3.58;;;10.90;99.90;;;;;;4233447;28;20109;-73
2023/12/28 03:52:40;;;;;;;11.85;3.50;;;10.80;99.90;;;;;;4234264;28;20048;-72
2023/12/28 03:54:42;;;;;;;12.30;3.03;;;10.80;99.90;;;;;;4235527;27;20052;-72
2023/12/28 03:56:45;;;;;;;9.90;3.00;;;10.80;99.90;;;;;;4250817;27;20035;-72
2023/12/28 03:58:47;;;;;;;10.68;3.28;;;10.80;99.90;;;;;;4250865;27;20054;-72
2023/12/28 04:00:49;;;;;;;10.32;2.80;;;10.80;99.90;;;;;;4250766;27;20068;-72
2023/12/28 04:02:51;;;;;;;8.75;3.25;;;10.80;99.90;;;;;;4250552;27;20504;-72
2023/12/28 04:04:55;;;;;;;11.80;2.92;;;10.80;99.90;;;;;;4232293;28;20047;-73
2023/12/28 04:06:57;;;;;;;9.25;3.33;;;10.80;99.90;;;;;;4241216;27;20044;-72
2023/12/28 04:09:00;;;;;;;7.68;2.83;;;10.70;99.90;;;;;;4233734;28;20114;-72
2023/12/28 04:11:02;;;;;;;16.25;3.53;;;10.70;99.90;;;;;;4233712;28;20177;-72
2023/12/28 04:13:07;;;;;;;9.80;3.58;;;10.70;99.90;;;;;;4233844;28;20055;-72
2023/12/28 04:15:09;;;;;;;9.45;3.15;;;10.70;99.90;;;;;;4238561;27;20076;-73
2023/12/28 04:17:11;;;;;;;10.98;2.97;;;10.70;99.90;;;;;;4250237;27;20043;-73
2023/12/28 04:19:13;;;;;;;14.43;3.78;;;10.70;99.90;;;;;;4250271;27;20046;-73
2023/12/28 04:21:17;;;;;;;12.32;3.20;;;10.70;99.90;;;;;;4250520;27;20488;-72
2023/12/28 04:23:19;;;;;;;10.18;3.30;;;10.70;99.90;;;;;;4234233;27;20051;-72
2023/12/28 04:25:21;;;;;;;7.65;2.55;;;10.70;99.90;;;;;;4239737;27;20130;-73
2023/12/28 04:27:23;;;;;;;16.13;3.47;;;10.70;99.90;;;;;;4250439;27;20043;-72
2023/12/28 04:29:25;;;;;;;9.65;2.97;;;10.60;99.90;;;;;;4250392;27;20043;-73
2023/12/28 04:31:27;;;;;;;11.40;3.00;;;10.60;99.90;;;;;;4250138;27;20051;-73
2023/12/28 04:33:30;;;;;;;8.73;3.15;;;10.60;99.90;;;;;;4250377;27;20163;-72
2023/12/28 04:35:32;;;;;;;9.15;2.95;;;10.60;99.90;;;;;;4250154;27;20047;-72
2023/12/28 04:37:36;;;;;;;16.30;3.08;;;10.60;99.90;;;;;;4258600;27;20047;-72
2023/12/28 04:39:43;;;;;;;11.70;3.35;;;10.60;99.90;;;;;;4238097;27;20470;-72
2023/12/28 04:41:50;;;;;;;9.73;3.22;;;10.50;99.90;;;;;;4233312;28;20402;-72
2023/12/28 04:43:52;;;;;;;9.05;3.17;;;10.60;99.90;;;;;;4233228;28;20040;-73
2023/12/28 04:45:54;;;;;;;11.15;2.90;;;10.60;99.90;;;;;;4244455;27;20055;-72
2023/12/28 04:47:56;;;;;;;12.98;3.00;;;10.50;99.90;;;;;;4249900;27;20043;-72
2023/12/28 04:49:59;;;;;;;9.45;2.70;;;10.60;99.90;;;;;;4250765;27;20494;-72
2023/12/28 04:52:01;;;;;;;17.00;3.47;;;10.60;99.90;;;;;;4251166;27;20039;-73
2023/12/28 04:54:05;;;;;;;11.38;3.22;;;10.60;99.90;;;;;;4252676;27;20046;-72
2023/12/28 04:56:09;;;;;;;10.38;3.10;;;10.60;99.90;;;;;;4243906;27;20044;-73
2023/12/28 04:58:12;;;;;;;20.25;4.28;;;10.50;99.90;;;;;;4235535;28;20060;-72
2023/12/28 05:00:15;;;;;;;12.27;3.50;;;10.60;99.90;;;;;;4240619;27;20053;-73
2023/12/28 05:02:17;;;;;;;14.98;3.45;;;10.60;99.90;;;;;;4256462;27;20050;-72
2023/12/28 05:04:19;;;;;;;13.23;3.20;;;10.60;99.90;;;;;;4256222;27;20051;-75
2023/12/28 05:06:22;;;;;;;15.10;3.53;;;10.60;99.90;;;;;;4256401;27;20069;-72
2023/12/28 05:08:24;;;;;;;8.85;3.15;;;10.50;99.90;;;;;;4255650;27;20043;-73
2023/12/28 05:10:28;;;;;;;12.40;3.35;;;10.60;99.90;;;;;;4255470;27;20059;-72
2023/12/28 05:12:30;;;;;;;12.15;3.88;;;10.60;99.90;;;;;;4229620;28;20036;-71
2023/12/28 05:14:45;;;;;;;11.43;3.10;;;10.60;99.90;;;;;;4235196;27;20070;-72
2023/12/28 05:16:47;;;;;;;13.00;3.22;;;10.60;99.90;;;;;;4250414;27;20057;-72
2023/12/28 05:18:49;;;;;;;15.45;3.80;;;10.60;99.90;;;;;;4249923;27;20066;-70
2023/12/28 05:20:51;;;;;;;11.73;3.70;;;10.60;99.90;;;;;;4250018;27;20053;-72
2023/12/28 05:22:53;;;;;;;11.07;3.28;;;10.60;99.90;;;;;;4249250;27;20097;-72
2023/12/28 05:24:55;;;;;;;17.05;3.50;;;10.60;99.90;;;;;;4231413;28;20057;-72
2023/12/28 05:26:59;;;;;;;15.20;3.35;;;10.60;99.90;;;;;;4250099;27;20039;-72
2023/12/28 05:29:01;;;;;;;10.43;3.05;;;10.60;99.90;;;;;;4248957;27;20054;-72
2023/12/28 05:31:05;;;;;;;15.13;3.15;;;10.60;99.90;;;;;;4247975;27;20477;-73
2023/12/28 05:33:07;;;;;;;9.23;3.05;;;10.60;99.90;;;;;;4248676;27;20342;-72
2023/12/28 05:35:09;;;;;;;15.13;3.15;;;10.60;99.90;;;;;;4230336;28;20097;-72
2023/12/28 05:37:11;;;;;;;15.68;3.33;;;10.60;99.90;;;;;;4253920;27;20493;-72
2023/12/28 05:39:13;;;;;;;11.32;2.83;;;10.50;99.90;;;;;;4265697;27;20080;-71
2023/12/28 05:41:16;;;;;;;12.95;3.50;;;10.50;99.90;;;;;;4266025;27;20053;-72
2023/12/28 05:43:19;;;;;;;13.20;3.70;;;10.60;99.90;;;;;;4254349;27;20051;-71
2023/12/28 05:45:21;;;;;;;12.88;3.88;;;10.60;99.90;;;;;;4228901;28;20050;-72
2023/12/28 05:47:24;;;;;;;15.13;3.55;;;10.50;99.90;;;;;;4248265;27;20047;-72
2023/12/28 05:49:28;;;;;;;9.63;3.33;;;10.50;99.90;;;;;;4248240;27;20460;-72
2023/12/28 05:51:37;;;;;;;15.73;3.72;;;10.50;99.90;;;;;;4248015;27;20047;-72
2023/12/28 05:53:39;;;;;;;15.27;3.85;;;10.50;99.90;;;;;;4248416;27;20529;-70
2023/12/28 05:55:41;;;;;;;13.85;3.88;;;10.50;99.90;;;;;;4248395;27;20043;-72
2023/12/28 05:57:44;;;;;;;15.30;3.88;;;10.40;99.90;;;;;;4248512;27;20519;-72
2023/12/28 05:59:48;;;;;;;10.77;3.50;;;10.50;99.90;;;;;;4229974;28;20127;-71
2023/12/28 06:01:50;;;;;;;15.80;3.80;;;10.40;99.90;;;;;;4246206;27;20039;-72
2023/12/28 06:03:52;;;;;;;13.80;3.38;;;10.40;99.90;;;;;;4248309;27;20382;-69
2023/12/28 06:05:55;;;;;;;13.63;3.42;;;10.40;99.90;;;;;;4248018;27;20054;-72
2023/12/28 06:07:57;;;;;;;13.57;3.45;;;10.50;99.90;;;;;;4248160;27;20044;-72
2023/12/28 06:10:02;;;;;;;13.75;3.80;;;10.40;99.90;;;;;;4248349;27;20050;-71
2023/12/28 06:12:05;;;;;;;18.17;3.40;;;10.40;99.90;;;;;;4248852;27;20046;-73
2023/12/28 06:14:08;;;;;;;12.15;3.75;;;10.40;99.90;;;;;;4250107;27;20038;-72
2023/12/28 06:16:12;;;;;;;18.35;3.95;;;10.40;99.90;;;;;;4250625;27;20089;-72
2023/12/28 06:18:14;;;;;;;16.90;3.95;;;10.40;99.90;;;;;;4249631;27;20049;-72
2023/12/28 06:20:16;;;;;;;16.38;4.05;;;10.40;99.90;;;;;;4249026;27;20051;-71
2023/12/28 06:22:18;;;;;;;15.55;3.28;;;10.30;99.90;;;;;;4247584;27;20124;-73
2023/12/28 06:24:20;;;;;;;14.07;3.50;;;10.30;99.90;;;;;;4247939;27;20051;-73
2023/12/28 06:26:22;;;;;;;17.85;3.40;;;10.30;99.90;;;;;;4247996;27;20067;-72
2023/12/28 06:28:24;;;;;;;17.77;4.10;;;10.30;99.90;;;;;;4247713;27;20504;-72
2023/12/28 06:30:26;;;;;;;15.93;3.28;;;10.30;99.90;;;;;;4248085;27;20054;-72
2023/12/28 06:32:30;;;;;;;21.73;3.90;;;10.30;99.90;;;;;;4247448;27;20047;-73
2023/12/28 06:34:32;;;;;;;18.55;3.78;;;10.30;99.90;;;;;;4248360;27;20043;-73
2023/12/28 06:36:35;;;;;;;8.60;3.05;;;10.30;99.90;;;;;;4248072;27;20043;-73
2023/12/28 06:38:38;;;;;;;14.70;3.33;;;10.30;99.90;;;;;;4268877;27;20106;-72
2023/12/28 06:40:41;;;;;;;17.10;3.65;;;10.30;99.90;;;;;;4269358;27;20050;-72
2023/12/28 06:42:43;;;;;;;15.00;3.35;;;10.30;99.90;;;;;;4235783;28;20370;-73
2023/12/28 06:44:46;;;;;;;16.98;3.13;;;10.30;99.90;;;;;;4231589;28;20126;-72
2023/12/28 06:46:48;;;;;;;19.25;3.97;;;10.30;99.90;;;;;;4221346;28;20063;-72
2023/12/28 06:48:51;;;;;;;20.67;4.22;;;10.30;99.90;;;;;;4248374;28;20082;-72
2023/12/28 06:50:55;;;;;;;23.17;3.65;;;10.30;99.90;;;;;;4228967;28;20058;-72
2023/12/28 06:52:57;;;;;;;20.75;4.57;;;10.30;99.90;;;;;;4230112;28;20043;-72
2023/12/28 06:54:59;;;;;;;15.75;3.75;;;10.30;99.90;;;;;;4248319;27;20047;-72
2023/12/28 06:57:01;;;;;;;18.73;3.50;;;10.30;99.90;;;;;;4229773;28;20048;-72
2023/12/28 06:59:03;;;;;;;18.73;4.20;;;10.30;99.90;;;;;;4247754;28;20063;-72
2023/12/28 07:01:06;;;;;;;20.73;4.15;;;10.30;99.90;;;;;;4247309;28;20050;-72
2023/12/28 07:03:09;;;;;;;18.50;3.53;;;10.30;99.90;;;;;;4248554;28;20111;-72
2023/12/28 07:05:13;;;;;;;19.35;4.30;;;10.30;99.90;;;;;;4247640;28;20112;-72
2023/12/28 07:07:16;;;;;;;24.88;4.63;;;10.30;99.90;;;;;;4246585;28;20043;-72
2023/12/28 07:09:18;;;;;;;19.95;4.47;;;10.20;99.90;;;;;;4247644;27;20666;-72
2023/12/28 07:11:20;;;;;;;16.15;3.50;;;10.20;99.90;;;;;;4247554;28;20100;-72
2023/12/28 07:13:22;;;;;;;19.80;4.38;;;10.20;99.90;;;;;;4248611;27;20043;-72
2023/12/28 07:15:25;;;;;;;19.42;4.43;;;10.20;99.90;;;;;;4251175;27;20042;-72
2023/12/28 07:17:27;;;;;;;23.85;4.13;;;10.20;99.90;;;;;;4250564;27;20410;-72
2023/12/28 07:19:29;;;;;;;18.92;4.22;;;10.20;99.90;;;;;;4250841;27;20047;-72
2023/12/28 07:21:33;;;;;;;21.15;3.50;;;10.20;99.90;;;;;;4250525;27;20050;-72
2023/12/28 07:23:35;;;;;;;14.88;4.35;;;10.20;99.90;;;;;;4250982;27;20043;-73
2023/12/28 07:25:37;;;;;;;17.52;3.70;;;10.20;99.90;;;;;;4250055;27;20462;-73
2023/12/28 07:27:39;;;;;;;21.00;4.20;;;10.20;99.90;;;;;;4251039;27;20094;-72
2023/12/28 07:29:41;;;;;;;19.30;4.05;;;10.30;99.90;;;;;;4233033;28;20786;-73
2023/12/28 07:31:44;;;;;;;17.10;4.05;;;10.20;99.90;;;;;;4253986;27;20110;-71
2023/12/28 07:33:46;;;;;;;20.45;4.88;;;10.30;99.90;;;;;;4253219;27;20040;-71
2023/12/28 07:35:48;;;;;;;16.65;3.90;;;10.30;99.90;;;;;;4253481;27;20066;-72
2023/12/28 07:37:52;;;;;;;11.90;3.45;;;10.30;99.90;;;;;;4236403;28;20063;-73
2023/12/28 07:39:54;;;;;;;19.15;4.53;;;10.30;99.90;;;;;;4255242;27;20055;-73
2023/12/28 07:41:56;;;;;;;17.70;4.28;;;10.40;99.90;;;;;;4254038;27;20126;-72
2023/12/28 07:43:58;;;;;;;26.23;5.07;;;10.40;99.90;;;;;;4237391;28;20044;-72
2023/12/28 07:46:00;;;;;;;19.10;4.15;;;10.40;99.90;;;;;;4234626;28;20470;-72
2023/12/28 07:48:03;;;;;;;14.73;4.22;;;10.40;99.90;;;;;;4250274;27;20044;-69
2023/12/28 07:50:07;;;;;;;14.70;4.05;;;10.50;99.90;;;;;;4250318;27;20039;-72
2023/12/28 07:52:09;;;;;;;13.82;4.40;;;10.50;99.90;;;;;;4250473;27;20085;-72
2023/12/28 07:54:12;;;;;;;19.33;4.13;;;10.50;99.90;;;;;;4250227;27;20058;-72
2023/12/28 07:56:14;;;;;;;14.70;4.22;;;10.50;99.90;;;;;;4250402;27;20434;-72
2023/12/28 07:58:16;;;;;;;16.63;4.55;;;10.60;99.90;;;;;;4248937;27;20043;-72
2023/12/28 08:00:19;;;;;;;24.42;5.15;;;10.60;99.90;;;;;;4233411;28;20055;-73
2023/12/28 08:02:21;;;;;;;12.30;3.65;;;10.60;99.90;;;;;;4242476;27;20051;-72
2023/12/28 08:04:23;;;;;;;19.10;3.90;;;10.60;99.90;;;;;;4250345;27;20053;-73
2023/12/28 08:06:25;;;;;;;21.02;4.15;;;10.60;99.90;;;;;;4249984;27;20049;-72
2023/12/28 08:08:27;;;;;;;14.98;4.35;;;10.60;99.90;;;;;;4252284;27;20062;-73
2023/12/28 08:10:31;;;;;;;18.35;4.15;;;10.70;99.90;;;;;;4251957;27;20051;-73
2023/12/28 08:12:33;;;;;;;28.27;4.28;;;10.70;99.90;;;;;;4250069;27;20039;-73
2023/12/28 08:14:35;;;;;;;16.52;3.88;;;10.70;99.90;;;;;;4245278;27;20039;-72
2023/12/28 08:16:37;;;;;;;18.33;3.70;;;10.80;99.90;;;;;;4235559;27;20066;-73
2023/12/28 08:18:39;;;;;;;22.15;4.40;;;10.80;99.90;;;;;;4249935;27;20082;-72
2023/12/28 08:20:41;;;;;;;17.42;3.63;;;10.80;99.90;;;;;;4250452;27;20486;-73
2023/12/28 08:22:43;;;;;;;25.45;3.63;;;10.90;99.90;;;;;;4251423;27;20153;-73
2023/12/28 08:24:45;;;;;;;15.35;3.85;;;10.90;99.90;;;;;;4251516;27;20405;-73
2023/12/28 08:26:51;;;;;;;13.88;4.05;;;10.90;99.90;;;;;;4252111;27;20039;-72
2023/12/28 08:28:53;;;;;;;14.48;3.70;;;10.90;99.90;;;;;;4232322;28;20508;-72
2023/12/28 08:30:56;;;;;;;18.05;4.45;;;10.90;99.90;;;;;;4249693;27;20050;-72
2023/12/28 08:32:58;;;;;;;24.10;5.10;;;10.90;99.90;;;;;;4249509;27;20054;-72
2023/12/28 08:35:02;;;;;;;16.75;4.00;;;11.00;99.90;;;;;;4250361;27;20432;-72
2023/12/28 08:37:04;;;;;;;11.93;3.15;;;11.00;99.90;;;;;;4253964;27;20409;-72
2023/12/28 08:39:07;;;;;;;12.38;3.47;;;11.00;99.90;;;;;;4266929;27;20107;-72
2023/12/28 08:41:18;;;;;;;17.75;4.28;;;11.00;99.90;;;;;;4266866;27;20115;-72
2023/12/28 08:43:21;;;;;;;16.48;4.25;;;11.00;99.90;;;;;;4248555;27;20049;-72
2023/12/28 08:45:23;;;;;;;16.52;4.93;;;11.00;99.90;;;;;;4266176;27;20046;-72
2023/12/28 08:47:25;;;;;;;14.63;3.78;;;11.00;99.90;;;;;;4250181;27;20104;-72
2023/12/28 08:49:27;;;;;;;20.27;3.55;;;11.00;99.90;;;;;;4250600;27;20062;-72
2023/12/28 08:51:29;;;;;;;13.93;3.03;;;10.90;99.90;;;;;;4250274;27;20476;-72
2023/12/28 08:53:32;;;;;;;15.85;3.67;;;10.90;99.90;;;;;;4249882;27;20047;-72
2023/12/28 08:55:34;;;;;;;16.67;3.47;;;10.90;99.90;;;;;;4249606;27;20059;-72
2023/12/28 08:57:36;;;;;;;21.05;3.45;;;11.00;99.90;;;;;;4231311;28;20109;-72
2023/12/28 08:59:45;;;;;;;17.08;3.60;;;10.90;99.90;;;;;;4248987;27;20494;-72
2023/12/28 09:01:47;;;;;;;24.33;4.32;;;11.00;99.90;;;;;;4230741;28;20040;-72
2023/12/28 09:03:50;;;;;;;14.52;3.47;;;11.00;99.90;;;;;;4235842;27;20044;-70
2023/12/28 09:05:52;;;;;;;17.92;3.42;;;11.00;99.90;;;;;;4232059;28;20056;-72
2023/12/28 09:07:54;;;;;;;13.93;3.75;;;11.00;99.90;;;;;;4245512;27;20474;-72
2023/12/28 09:09:56;;;;;;;12.38;2.63;;;11.10;99.90;;;;;;4249119;27;20047;-71
2023/12/28 09:11:58;;;;;;;18.92;3.35;;;11.10;99.90;;;;;;4249027;27;20044;-72
2023/12/28 09:14:01;;;;;;;19.63;3.88;;;11.10;99.90;;;;;;4249255;27;20049;-72
2023/12/28 09:16:05;;;;;;;12.70;2.80;;;11.10;99.90;;;;;;4248911;27;20157;-71
2023/12/28 09:18:08;;;;;;;12.65;3.63;;;11.20;99.90;;;;;;4248473;27;20043;-71
2023/12/28 09:20:11;;;;;;;11.70;2.85;;;11.20;99.90;;;;;;4247642;27;20471;-70
2023/12/28 09:22:14;;;;;;;13.10;3.03;;;11.20;99.90;;;;;;4248973;27;20039;-71
2023/12/28 09:24:18;;;;;;;16.20;3.50;;;11.30;99.90;;;;;;4248714;27;20045;-72
2023/12/28 09:26:20;;;;;;;17.90;2.85;;;11.30;99.90;;;;;;4249188;27;20083;-71
2023/12/28 09:28:24;;;;;;;17.65;3.63;;;11.30;99.90;;;;;;4248537;27;20054;-71
2023/12/28 09:30:26;;;;;;;14.55;3.38;;;11.40;99.90;;;;;;4249449;27;20047;-71
2023/12/28 09:32:29;;;;;;;17.10;3.03;;;11.50;99.90;;;;;;4252076;27;20043;-71
2023/12/28 09:34:31;;;;;;;7.63;2.38;;;11.50;99.90;;;;;;4249627;27;20075;-72
2023/12/28 09:36:33;;;;;;;18.08;2.90;;;11.50;99.90;;;;;;4246964;27;20106;-72
2023/12/28 09:38:35;;;;;;;9.75;2.55;;;11.60;99.90;;;;;;4247616;27;20294;-72
2023/12/28 09:40:38;;;;;;;11.52;3.05;;;11.60;99.90;;;;;;4265928;27;20098;-73
2023/12/28 09:42:48;;;;;;;15.52;3.28;;;11.70;99.90;;;;;;4265601;27;20053;-71
2023/12/28 09:44:50;;;;;;;13.32;2.70;;;11.70;99.90;;;;;;4265823;27;20058;-71
2023/12/28 09:46:55;;;;;;;13.73;3.42;;;11.80;99.90;;;;;;4262115;27;20047;-72
2023/12/28 09:48:59;;;;;;;12.90;3.08;;;11.80;99.90;;;;;;4248627;27;20087;-72
2023/12/28 09:51:01;;;;;;;12.93;2.97;;;11.70;99.90;;;;;;4248912;27;20077;-72
2023/12/28 09:53:03;;;;;;;14.93;2.90;;;11.60;99.90;;;;;;4238124;27;20100;-72
2023/12/28 09:55:08;;;;;;;18.33;3.35;;;11.60;99.90;;;;;;4231538;28;20058;-72
2023/12/28 09:57:11;;;;;;;12.05;3.20;;;11.60;99.90;;;;;;4237357;27;20051;-71
2023/12/28 09:59:15;;;;;;;16.92;3.67;;;11.60;99.90;;;;;;4251419;27;20485;-73
2023/12/28 10:01:17;;;;;;;10.43;2.42;;;11.60;99.90;;;;;;4250413;27;20046;-72
2023/12/28 10:03:22;;;;;;;8.27;2.75;;;11.60;99.90;;;;;;4250549;27;20485;-72
2023/12/28 10:05:26;;;;;;;10.77;2.85;;;11.80;99.90;;;;;;4248866;27;20043;-73
2023/12/28 10:07:28;;;;;;;12.05;2.95;;;11.90;99.90;;;;;;4249199;27;20043;-72
2023/12/28 10:09:30;;;;;;;10.48;2.55;;;11.80;99.90;;;;;;4232596;28;20126;-76
2023/12/28 10:11:32;;;;;;;8.02;2.65;;;11.90;99.90;;;;;;4232592;28;20099;-72
2023/12/28 10:13:35;;;;;;;15.38;2.80;;;11.90;99.90;;;;;;4233573;28;20459;-72
2023/12/28 10:15:37;;;;;;;11.43;2.88;;;11.90;99.90;;;;;;4233546;28;20518;-72
2023/12/28 10:17:40;;;;;;;7.53;2.63;;;11.90;99.90;;;;;;4240529;27;20678;-73
2023/12/28 10:19:47;;;;;;;12.82;3.03;;;12.00;99.90;;;;;;4247876;27;20493;-72
2023/12/28 10:21:54;;;;;;;10.10;2.65;;;12.00;99.90;;;;;;4248363;27;20126;-73
2023/12/28 10:23:56;;;;;;;11.75;3.05;;;11.90;99.90;;;;;;4248227;27;20050;-74
2023/12/28 10:25:59;;;;;;;11.75;3.25;;;12.00;99.90;;;;;;4223434;28;20047;-73
2023/12/28 10:28:07;;;;;;;14.30;2.90;;;12.00;99.90;;;;;;4243258;27;20043;-72
2023/12/28 10:30:10;;;;;;;8.30;2.78;;;12.00;99.90;;;;;;4247463;27;20545;-72
2023/12/28 10:32:13;;;;;;;12.00;2.55;;;12.00;99.90;;;;;;4247710;27;20054;-73
2023/12/28 10:34:16;;;;;;;15.05;3.30;;;12.00;99.90;;;;;;4248200;27;20072;-73